Leonie — PHLE — position and weather

sailwx.info

Track history (hours):
 
Tides and Currents Weather Stations Pressure Air Temp Water Temp Dewpoint Dewpoint Depression Visibility Wind Speed Wind Dir Waves Ship Positions

Leonie

Last reported at 2017-Mar-26 17:25 UTC. Time now 2017-Mar-26 18:48 UTC.
Position N 55°20' E 018°02'.

Length 90 m; draft 5 m.

Type: Cargo ship. MMSI: 244772000.

Date/timePositionNaut miles runAvg speedWind from/ knotsBaromVisibWave heightAir tempDewpointWater temp
2017-Mar-26 17:25N 55°20' E 018°02'910.2
2017-Mar-26 16:33N 55°22' E 018°17'1110.2
2017-Mar-26 15:28N 55°25' E 018°36'  
2017-Mar-20 23:28N 59°30' E 016°51'6 6.6
2017-Mar-20 22:34N 59°32' E 017°02'9 9.4
2017-Mar-20 21:33N 59°27' E 017°18'1010.0
2017-Mar-20 20:33N 59°20' E 017°32'180 9.5
2017-Mar-20 01:33N 56°20' E 016°58'1110.6
2017-Mar-20 00:33N 56°10' E 016°51'1010.0
2017-Mar-19 23:33N 56°02' E 016°40'1010.0
2017-Mar-19 22:33N 55°57' E 016°25'10 9.9
2017-Mar-19 21:33N 55°52' E 016°09'10 9.9
2017-Mar-19 20:33N 55°48' E 015°54'1010.0
2017-Mar-19 19:33N 55°43' E 015°38'1110.5
2017-Mar-19 18:32N 55°37' E 015°22'1010.4
2017-Mar-19 17:33N 55°32' E 015°07'1110.7
2017-Mar-19 16:33N 55°27' E 014°50'1010.4
2017-Mar-19 15:33N 55°21' E 014°35'1110.9
2017-Mar-19 14:33N 55°12' E 014°23'1010.5
2017-Mar-19 13:33N 55°04' E 014°13'1010.3
2017-Mar-19 12:33N 54°58' E 013°57'1312.0
2017-Mar-19 11:28N 54°52' E 013°37'1111.6
2017-Mar-19 10:33N 54°49' E 013°19'1110.6
2017-Mar-19 09:32N 54°45' E 013°02'1110.9
2017-Mar-19 08:33N 54°40' E 012°45'1110.6
2017-Mar-19 07:33N 54°35' E 012°29'1510.6
2017-Mar-19 06:11N 54°25' E 012°11'710.6
2017-Mar-19 05:33N 54°25' E 011°59'1110.8
2017-Mar-19 04:33N 54°27' E 011°41'1111.5
2017-Mar-19 03:33N 54°32' E 011°23'1211.5
2017-Mar-19 02:33N 54°34' E 011°04'1111.1
2017-Mar-19 01:33N 54°34' E 010°45'1010.5
2017-Mar-19 00:33N 54°31' E 010°27'48 6.8
2017-Mar-18 17:33N 54°04' E 009°19'8 8.0
2017-Mar-18 16:33N 53°57' E 009°14'4 4.1
2017-Mar-18 15:33N 53°54' E 009°09'0 0.0
2017-Mar-18 14:33N 53°54' E 009°09'0 0.4
2017-Mar-18 13:34N 53°54' E 009°09'2 2.1
2017-Mar-18 12:33N 53°53' E 009°05'9 9.2
2017-Mar-18 11:33N 53°50' E 008°50'7 7.3
2017-Mar-18 10:33N 53°55' E 008°41'8 7.6
2017-Mar-18 09:33N 53°58' E 008°29'9 8.8
2017-Mar-18 08:30N 53°59' E 008°14'9 9.0
2017-Mar-18 07:33N 53°58' E 007°60'10 9.4
2017-Mar-18 06:33N 53°56' E 007°44'12810.5
2017-Mar-17 18:27N 53°05' E 004°27'1111.8
2017-Mar-17 17:33N 52°56' E 004°19'1111.4
2017-Mar-17 16:33N 52°47' E 004°08'1211.1
2017-Mar-17 15:31N 52°40' E 003°52'8410.3
2017-Mar-17 07:24N 51°46' E 002°07'1011.5
2017-Mar-17 06:34N 51°40' E 001°55'1211.8
2017-Mar-17 05:33N 51°34' E 001°39'1212.1
2017-Mar-17 04:33N 51°29' E 001°21'1211.6
2017-Mar-17 03:33N 51°29' E 001°03'1010.0
2017-Mar-17 02:33N 51°28' E 000°47'9 8.7
2017-Mar-17 01:33N 51°24' E 000°35'  
Track history (hours):
 
Tides and Currents Weather Stations Pressure Air Temp Water Temp Dewpoint Dewpoint Depression Visibility Wind Speed Wind Dir Waves Ship Positions

Leonie

Last reported at 2017-Mar-26 17:25 UTC. Time now 2017-Mar-26 18:48 UTC.
Position N 55°20' E 018°02'.

Length 90 m; draft 5 m.

Type: Cargo ship. MMSI: 244772000.

Date/timePositionNaut miles runAvg speedWind from/ knotsBaromVisibWave heightAir tempDewpointWater temp
2017-Mar-26 17:25N 55°20' E 018°02'910.2
2017-Mar-26 16:33N 55°22' E 018°17'1110.2
2017-Mar-26 15:28N 55°25' E 018°36'  
2017-Mar-20 23:28N 59°30' E 016°51'6 6.6
2017-Mar-20 22:34N 59°32' E 017°02'9 9.4
2017-Mar-20 21:33N 59°27' E 017°18'1010.0
2017-Mar-20 20:33N 59°20' E 017°32'180 9.5
2017-Mar-20 01:33N 56°20' E 016°58'1110.6
2017-Mar-20 00:33N 56°10' E 016°51'1010.0
2017-Mar-19 23:33N 56°02' E 016°40'1010.0
2017-Mar-19 22:33N 55°57' E 016°25'10 9.9
2017-Mar-19 21:33N 55°52' E 016°09'10 9.9
2017-Mar-19 20:33N 55°48' E 015°54'1010.0
2017-Mar-19 19:33N 55°43' E 015°38'1110.5
2017-Mar-19 18:32N 55°37' E 015°22'1010.4
2017-Mar-19 17:33N 55°32' E 015°07'1110.7
2017-Mar-19 16:33N 55°27' E 014°50'1010.4
2017-Mar-19 15:33N 55°21' E 014°35'1110.9
2017-Mar-19 14:33N 55°12' E 014°23'1010.5
2017-Mar-19 13:33N 55°04' E 014°13'1010.3
2017-Mar-19 12:33N 54°58' E 013°57'1312.0
2017-Mar-19 11:28N 54°52' E 013°37'1111.6
2017-Mar-19 10:33N 54°49' E 013°19'1110.6
2017-Mar-19 09:32N 54°45' E 013°02'1110.9
2017-Mar-19 08:33N 54°40' E 012°45'1110.6
2017-Mar-19 07:33N 54°35' E 012°29'1510.6
2017-Mar-19 06:11N 54°25' E 012°11'710.6
2017-Mar-19 05:33N 54°25' E 011°59'1110.8
2017-Mar-19 04:33N 54°27' E 011°41'1111.5
2017-Mar-19 03:33N 54°32' E 011°23'1211.5
2017-Mar-19 02:33N 54°34' E 011°04'1111.1
2017-Mar-19 01:33N 54°34' E 010°45'1010.5
2017-Mar-19 00:33N 54°31' E 010°27'48 6.8
2017-Mar-18 17:33N 54°04' E 009°19'8 8.0
2017-Mar-18 16:33N 53°57' E 009°14'4 4.1
2017-Mar-18 15:33N 53°54' E 009°09'0 0.0
2017-Mar-18 14:33N 53°54' E 009°09'0 0.4
2017-Mar-18 13:34N 53°54' E 009°09'2 2.1
2017-Mar-18 12:33N 53°53' E 009°05'9 9.2
2017-Mar-18 11:33N 53°50' E 008°50'7 7.3
2017-Mar-18 10:33N 53°55' E 008°41'8 7.6
2017-Mar-18 09:33N 53°58' E 008°29'9 8.8
2017-Mar-18 08:30N 53°59' E 008°14'9 9.0
2017-Mar-18 07:33N 53°58' E 007°60'10 9.4
2017-Mar-18 06:33N 53°56' E 007°44'12810.5
2017-Mar-17 18:27N 53°05' E 004°27'1111.8
2017-Mar-17 17:33N 52°56' E 004°19'1111.4
2017-Mar-17 16:33N 52°47' E 004°08'1211.1
2017-Mar-17 15:31N 52°40' E 003°52'8410.3
2017-Mar-17 07:24N 51°46' E 002°07'1011.5
2017-Mar-17 06:34N 51°40' E 001°55'1211.8
2017-Mar-17 05:33N 51°34' E 001°39'1212.1
2017-Mar-17 04:33N 51°29' E 001°21'1211.6
2017-Mar-17 03:33N 51°29' E 001°03'1010.0
2017-Mar-17 02:33N 51°28' E 000°47'9 8.7
2017-Mar-17 01:33N 51°24' E 000°35'  

Dump ship's entire track history